sensor_id;sensor_type;location;lat;lon;timestamp;temperature;humidity
58993;DHT22;44782;0.000;0.000;2023-06-14T00:01:55;25.50;51.50
58993;DHT22;44782;0.000;0.000;2023-06-14T00:04:12;25.50;51.60
58993;DHT22;44782;0.000;0.000;2023-06-14T00:06:31;25.50;51.60
58993;DHT22;44782;0.000;0.000;2023-06-14T00:08:49;25.50;51.60
58993;DHT22;44782;0.000;0.000;2023-06-14T00:11:05;25.50;52.30
58993;DHT22;44782;0.000;0.000;2023-06-14T00:13:20;25.50;51.60
58993;DHT22;44782;0.000;0.000;2023-06-14T00:15:36;25.50;51.60
58993;DHT22;44782;0.000;0.000;2023-06-14T00:17:52;25.40;51.60
58993;DHT22;44782;0.000;0.000;2023-06-14T00:20:08;25.40;51.60
58993;DHT22;44782;0.000;0.000;2023-06-14T00:22:25;25.50;51.70
58993;DHT22;44782;0.000;0.000;2023-06-14T00:24:41;25.40;51.70
58993;DHT22;44782;0.000;0.000;2023-06-14T00:26:56;25.40;51.70
58993;DHT22;44782;0.000;0.000;2023-06-14T00:29:12;25.40;51.70
58993;DHT22;44782;0.000;0.000;2023-06-14T00:31:30;25.40;51.70
58993;DHT22;44782;0.000;0.000;2023-06-14T00:33:46;25.40;51.70
58993;DHT22;44782;0.000;0.000;2023-06-14T00:36:02;25.40;51.70
58993;DHT22;44782;0.000;0.000;2023-06-14T00:38:17;25.40;51.70
58993;DHT22;44782;0.000;0.000;2023-06-14T00:40:33;25.40;51.70
58993;DHT22;44782;0.000;0.000;2023-06-14T00:42:50;25.40;51.80
58993;DHT22;44782;0.000;0.000;2023-06-14T00:45:06;25.40;51.80
58993;DHT22;44782;0.000;0.000;2023-06-14T00:47:22;25.40;51.80
58993;DHT22;44782;0.000;0.000;2023-06-14T00:49:38;25.40;51.80
58993;DHT22;44782;0.000;0.000;2023-06-14T00:51:54;25.40;51.80
58993;DHT22;44782;0.000;0.000;2023-06-14T00:54:10;25.40;51.80
58993;DHT22;44782;0.000;0.000;2023-06-14T00:56:26;25.30;51.70
58993;DHT22;44782;0.000;0.000;2023-06-14T00:58:43;25.30;51.70
58993;DHT22;44782;0.000;0.000;2023-06-14T01:00:59;25.40;51.80
58993;DHT22;44782;0.000;0.000;2023-06-14T01:03:14;25.30;51.80
58993;DHT22;44782;0.000;0.000;2023-06-14T01:05:34;25.30;51.80
58993;DHT22;44782;0.000;0.000;2023-06-14T01:08:21;25.30;51.80
58993;DHT22;44782;0.000;0.000;2023-06-14T01:15:23;25.30;51.80
58993;DHT22;44782;0.000;0.000;2023-06-14T01:17:40;25.30;51.80
58993;DHT22;44782;0.000;0.000;2023-06-14T01:20:01;25.30;51.80
58993;DHT22;44782;0.000;0.000;2023-06-14T01:22:17;25.30;51.80
58993;DHT22;44782;0.000;0.000;2023-06-14T01:24:32;25.30;51.80
58993;DHT22;44782;0.000;0.000;2023-06-14T01:26:50;25.30;51.80
58993;DHT22;44782;0.000;0.000;2023-06-14T01:29:07;25.30;51.80
58993;DHT22;44782;0.000;0.000;2023-06-14T01:31:24;25.30;51.80
58993;DHT22;44782;0.000;0.000;2023-06-14T01:33:41;25.20;51.80
58993;DHT22;44782;0.000;0.000;2023-06-14T01:35:57;25.20;51.80
58993;DHT22;44782;0.000;0.000;2023-06-14T01:38:14;25.20;51.80
58993;DHT22;44782;0.000;0.000;2023-06-14T01:40:31;25.20;51.80
58993;DHT22;44782;0.000;0.000;2023-06-14T01:42:49;25.30;51.90
58993;DHT22;44782;0.000;0.000;2023-06-14T01:45:06;25.20;51.80
58993;DHT22;44782;0.000;0.000;2023-06-14T01:47:23;25.20;51.80
58993;DHT22;44782;0.000;0.000;2023-06-14T01:49:39;25.20;51.90
58993;DHT22;44782;0.000;0.000;2023-06-14T01:51:55;25.20;51.80
58993;DHT22;44782;0.000;0.000;2023-06-14T01:54:11;25.20;51.80
58993;DHT22;44782;0.000;0.000;2023-06-14T01:56:26;25.20;51.90
58993;DHT22;44782;0.000;0.000;2023-06-14T01:58:42;25.20;51.90
58993;DHT22;44782;0.000;0.000;2023-06-14T02:00:58;25.20;51.90
58993;DHT22;44782;0.000;0.000;2023-06-14T02:03:16;25.20;51.90
58993;DHT22;44782;0.000;0.000;2023-06-14T02:05:31;25.20;51.80
58993;DHT22;44782;0.000;0.000;2023-06-14T02:10:13;25.20;51.90
58993;DHT22;44782;0.000;0.000;2023-06-14T02:12:29;25.20;51.90
58993;DHT22;44782;0.000;0.000;2023-06-14T02:14:45;25.20;51.90
58993;DHT22;44782;0.000;0.000;2023-06-14T02:17:01;25.20;52.10
58993;DHT22;44782;0.000;0.000;2023-06-14T02:19:17;25.20;51.90
58993;DHT22;44782;0.000;0.000;2023-06-14T02:21:33;25.20;51.90
58993;DHT22;44782;0.000;0.000;2023-06-14T02:23:49;25.20;51.90
58993;DHT22;44782;0.000;0.000;2023-06-14T02:26:05;25.20;51.90
58993;DHT22;44782;0.000;0.000;2023-06-14T02:28:20;25.20;51.90
58993;DHT22;44782;0.000;0.000;2023-06-14T02:30:36;25.20;51.90
58993;DHT22;44782;0.000;0.000;2023-06-14T02:32:52;25.10;51.80
58993;DHT22;44782;0.000;0.000;2023-06-14T02:35:09;25.10;51.90
58993;DHT22;44782;0.000;0.000;2023-06-14T02:37:24;25.10;51.90
58993;DHT22;44782;0.000;0.000;2023-06-14T02:39:40;25.10;52.50
58993;DHT22;44782;0.000;0.000;2023-06-14T02:41:56;25.10;51.90
58993;DHT22;44782;0.000;0.000;2023-06-14T02:44:13;25.10;51.90
58993;DHT22;44782;0.000;0.000;2023-06-14T02:46:29;25.10;51.90
58993;DHT22;44782;0.000;0.000;2023-06-14T02:48:44;25.10;51.90
58993;DHT22;44782;0.000;0.000;2023-06-14T02:51:00;25.10;51.90
58993;DHT22;44782;0.000;0.000;2023-06-14T02:53:16;25.10;51.90
58993;DHT22;44782;0.000;0.000;2023-06-14T02:55:32;25.10;51.90
58993;DHT22;44782;0.000;0.000;2023-06-14T02:57:48;25.10;51.90
58993;DHT22;44782;0.000;0.000;2023-06-14T03:00:04;25.10;51.90
58993;DHT22;44782;0.000;0.000;2023-06-14T03:02:20;25.10;51.90
58993;DHT22;44782;0.000;0.000;2023-06-14T03:04:36;25.10;51.90
58993;DHT22;44782;0.000;0.000;2023-06-14T03:06:52;25.10;51.90
58993;DHT22;44782;0.000;0.000;2023-06-14T03:09:12;25.10;51.90
58993;DHT22;44782;0.000;0.000;2023-06-14T03:11:27;25.10;51.80
58993;DHT22;44782;0.000;0.000;2023-06-14T03:13:44;25.10;51.80
58993;DHT22;44782;0.000;0.000;2023-06-14T03:16:00;25.10;51.80
58993;DHT22;44782;0.000;0.000;2023-06-14T03:18:19;25.10;51.80
58993;DHT22;44782;0.000;0.000;2023-06-14T03:20:38;25.00;51.80
58993;DHT22;44782;0.000;0.000;2023-06-14T03:22:54;25.00;51.70
58993;DHT22;44782;0.000;0.000;2023-06-14T03:25:10;25.00;51.80
58993;DHT22;44782;0.000;0.000;2023-06-14T03:27:25;25.00;51.80
58993;DHT22;44782;0.000;0.000;2023-06-14T03:29:44;25.00;51.80
58993;DHT22;44782;0.000;0.000;2023-06-14T03:32:02;25.00;51.70
58993;DHT22;44782;0.000;0.000;2023-06-14T03:34:18;25.00;51.70
58993;DHT22;44782;0.000;0.000;2023-06-14T03:36:34;25.00;51.80
58993;DHT22;44782;0.000;0.000;2023-06-14T03:38:50;25.00;51.70
58993;DHT22;44782;0.000;0.000;2023-06-14T03:41:05;25.00;51.70
58993;DHT22;44782;0.000;0.000;2023-06-14T03:43:21;25.00;51.80
58993;DHT22;44782;0.000;0.000;2023-06-14T03:45:37;25.00;51.80
58993;DHT22;44782;0.000;0.000;2023-06-14T03:47:52;25.00;51.80
58993;DHT22;44782;0.000;0.000;2023-06-14T03:50:08;25.00;51.80
58993;DHT22;44782;0.000;0.000;2023-06-14T03:52:24;25.00;51.80
58993;DHT22;44782;0.000;0.000;2023-06-14T03:54:40;25.00;51.80
58993;DHT22;44782;0.000;0.000;2023-06-14T03:56:56;25.00;51.80
58993;DHT22;44782;0.000;0.000;2023-06-14T03:59:12;25.00;51.80
58993;DHT22;44782;0.000;0.000;2023-06-14T04:01:28;25.00;51.80
58993;DHT22;44782;0.000;0.000;2023-06-14T04:03:45;25.00;51.80
58993;DHT22;44782;0.000;0.000;2023-06-14T04:06:00;25.00;51.80
58993;DHT22;44782;0.000;0.000;2023-06-14T04:08:16;25.00;51.80
58993;DHT22;44782;0.000;0.000;2023-06-14T04:10:34;24.90;51.70
58993;DHT22;44782;0.000;0.000;2023-06-14T04:12:50;24.90;51.70
58993;DHT22;44782;0.000;0.000;2023-06-14T04:15:07;24.90;51.80
58993;DHT22;44782;0.000;0.000;2023-06-14T04:17:24;24.90;51.80
58993;DHT22;44782;0.000;0.000;2023-06-14T04:19:39;24.90;51.80
58993;DHT22;44782;0.000;0.000;2023-06-14T04:21:55;24.90;51.80
58993;DHT22;44782;0.000;0.000;2023-06-14T04:24:11;24.90;51.70
58993;DHT22;44782;0.000;0.000;2023-06-14T04:26:28;24.90;51.80
58993;DHT22;44782;0.000;0.000;2023-06-14T04:28:45;24.90;51.70
58993;DHT22;44782;0.000;0.000;2023-06-14T04:31:00;24.90;51.80
58993;DHT22;44782;0.000;0.000;2023-06-14T04:33:17;24.90;51.80
58993;DHT22;44782;0.000;0.000;2023-06-14T04:35:33;24.90;51.70
58993;DHT22;44782;0.000;0.000;2023-06-14T04:37:51;24.90;51.60
58993;DHT22;44782;0.000;0.000;2023-06-14T04:40:09;24.90;51.50
58993;DHT22;44782;0.000;0.000;2023-06-14T04:42:25;24.90;51.50
58993;DHT22;44782;0.000;0.000;2023-06-14T04:44:46;24.90;51.50
58993;DHT22;44782;0.000;0.000;2023-06-14T04:47:02;24.90;51.40
58993;DHT22;44782;0.000;0.000;2023-06-14T04:49:18;24.90;51.40
58993;DHT22;44782;0.000;0.000;2023-06-14T04:51:33;24.90;51.40
58993;DHT22;44782;0.000;0.000;2023-06-14T04:53:50;24.90;51.40
58993;DHT22;44782;0.000;0.000;2023-06-14T04:56:06;24.90;51.40
58993;DHT22;44782;0.000;0.000;2023-06-14T04:58:22;24.90;51.40
58993;DHT22;44782;0.000;0.000;2023-06-14T05:00:38;24.90;52.20
58993;DHT22;44782;0.000;0.000;2023-06-14T05:02:54;24.80;51.50
58993;DHT22;44782;0.000;0.000;2023-06-14T05:05:09;24.80;51.40
58993;DHT22;44782;0.000;0.000;2023-06-14T05:07:26;24.80;51.40
58993;DHT22;44782;0.000;0.000;2023-06-14T05:09:42;24.80;51.50
58993;DHT22;44782;0.000;0.000;2023-06-14T05:11:57;24.80;51.50
58993;DHT22;44782;0.000;0.000;2023-06-14T05:14:16;24.80;51.50
58993;DHT22;44782;0.000;0.000;2023-06-14T05:16:32;24.80;51.70
58993;DHT22;44782;0.000;0.000;2023-06-14T05:18:47;24.80;51.60
58993;DHT22;44782;0.000;0.000;2023-06-14T05:21:03;24.80;51.70
58993;DHT22;44782;0.000;0.000;2023-06-14T05:23:20;24.80;51.80
58993;DHT22;44782;0.000;0.000;2023-06-14T05:25:36;24.80;51.80
58993;DHT22;44782;0.000;0.000;2023-06-14T05:27:52;24.80;51.80
58993;DHT22;44782;0.000;0.000;2023-06-14T05:30:08;24.80;51.80
58993;DHT22;44782;0.000;0.000;2023-06-14T05:32:24;24.80;51.80
58993;DHT22;44782;0.000;0.000;2023-06-14T05:34:40;24.80;51.80
58993;DHT22;44782;0.000;0.000;2023-06-14T05:36:56;24.80;51.70
58993;DHT22;44782;0.000;0.000;2023-06-14T05:39:12;24.80;51.70
58993;DHT22;44782;0.000;0.000;2023-06-14T05:41:29;24.80;51.70
58993;DHT22;44782;0.000;0.000;2023-06-14T05:43:44;24.80;51.70
58993;DHT22;44782;0.000;0.000;2023-06-14T05:46:00;24.80;51.70
58993;DHT22;44782;0.000;0.000;2023-06-14T05:48:16;24.80;51.60
58993;DHT22;44782;0.000;0.000;2023-06-14T05:50:32;24.80;51.70
58993;DHT22;44782;0.000;0.000;2023-06-14T05:52:47;24.80;51.70
58993;DHT22;44782;0.000;0.000;2023-06-14T05:55:04;24.80;51.70
58993;DHT22;44782;0.000;0.000;2023-06-14T05:57:20;24.80;51.70
58993;DHT22;44782;0.000;0.000;2023-06-14T05:59:36;24.80;51.60
58993;DHT22;44782;0.000;0.000;2023-06-14T06:01:51;24.80;51.70
58993;DHT22;44782;0.000;0.000;2023-06-14T06:04:07;24.80;51.60
58993;DHT22;44782;0.000;0.000;2023-06-14T06:06:23;24.80;51.70
58993;DHT22;44782;0.000;0.000;2023-06-14T06:08:38;24.70;51.40
58993;DHT22;44782;0.000;0.000;2023-06-14T06:10:54;24.70;51.70
58993;DHT22;44782;0.000;0.000;2023-06-14T06:13:10;24.70;51.50
58993;DHT22;44782;0.000;0.000;2023-06-14T06:15:25;24.80;51.70
58993;DHT22;44782;0.000;0.000;2023-06-14T06:17:41;24.70;51.40
58993;DHT22;44782;0.000;0.000;2023-06-14T06:19:57;24.70;51.40
58993;DHT22;44782;0.000;0.000;2023-06-14T06:22:12;24.70;51.60
58993;DHT22;44782;0.000;0.000;2023-06-14T06:24:28;24.70;51.60
58993;DHT22;44782;0.000;0.000;2023-06-14T06:26:44;24.70;51.50
58993;DHT22;44782;0.000;0.000;2023-06-14T06:28:59;24.70;51.60
58993;DHT22;44782;0.000;0.000;2023-06-14T06:31:15;24.70;51.50
58993;DHT22;44782;0.000;0.000;2023-06-14T06:33:31;24.70;51.50
58993;DHT22;44782;0.000;0.000;2023-06-14T06:35:47;24.70;51.50
58993;DHT22;44782;0.000;0.000;2023-06-14T06:38:03;24.70;51.60
58993;DHT22;44782;0.000;0.000;2023-06-14T06:40:18;24.70;51.60
58993;DHT22;44782;0.000;0.000;2023-06-14T06:42:34;24.70;51.70
58993;DHT22;44782;0.000;0.000;2023-06-14T06:44:50;24.70;51.70
58993;DHT22;44782;0.000;0.000;2023-06-14T06:47:06;24.70;51.70
58993;DHT22;44782;0.000;0.000;2023-06-14T06:49:21;24.70;52.30
58993;DHT22;44782;0.000;0.000;2023-06-14T06:51:40;24.70;51.70
58993;DHT22;44782;0.000;0.000;2023-06-14T06:53:57;24.70;51.60
58993;DHT22;44782;0.000;0.000;2023-06-14T06:56:13;24.70;51.50
58993;DHT22;44782;0.000;0.000;2023-06-14T06:58:29;24.70;51.60
58993;DHT22;44782;0.000;0.000;2023-06-14T07:00:44;24.70;51.60
58993;DHT22;44782;0.000;0.000;2023-06-14T07:03:00;24.70;51.70
58993;DHT22;44782;0.000;0.000;2023-06-14T07:05:16;24.70;51.70
58993;DHT22;44782;0.000;0.000;2023-06-14T07:07:32;24.70;51.70
58993;DHT22;44782;0.000;0.000;2023-06-14T07:09:47;24.70;51.70
58993;DHT22;44782;0.000;0.000;2023-06-14T07:12:03;24.70;51.70
58993;DHT22;44782;0.000;0.000;2023-06-14T07:14:20;24.70;51.70
58993;DHT22;44782;0.000;0.000;2023-06-14T07:16:38;24.70;51.70
58993;DHT22;44782;0.000;0.000;2023-06-14T07:18:54;24.70;51.70
58993;DHT22;44782;0.000;0.000;2023-06-14T07:21:09;24.70;51.60
58993;DHT22;44782;0.000;0.000;2023-06-14T07:23:25;24.70;51.60
58993;DHT22;44782;0.000;0.000;2023-06-14T07:25:41;24.70;51.50
58993;DHT22;44782;0.000;0.000;2023-06-14T07:27:56;24.70;51.60
58993;DHT22;44782;0.000;0.000;2023-06-14T07:30:12;24.70;51.60
58993;DHT22;44782;0.000;0.000;2023-06-14T07:32:28;24.70;51.60
58993;DHT22;44782;0.000;0.000;2023-06-14T07:34:43;24.70;51.70
58993;DHT22;44782;0.000;0.000;2023-06-14T07:36:59;24.70;51.60
58993;DHT22;44782;0.000;0.000;2023-06-14T07:39:15;24.70;51.60
58993;DHT22;44782;0.000;0.000;2023-06-14T07:41:31;24.70;51.60
58993;DHT22;44782;0.000;0.000;2023-06-14T07:43:47;24.70;51.40
58993;DHT22;44782;0.000;0.000;2023-06-14T07:46:02;24.70;51.50
58993;DHT22;44782;0.000;0.000;2023-06-14T07:48:18;24.70;51.50
58993;DHT22;44782;0.000;0.000;2023-06-14T07:50:34;24.70;51.50
58993;DHT22;44782;0.000;0.000;2023-06-14T07:52:49;24.70;51.60
58993;DHT22;44782;0.000;0.000;2023-06-14T07:55:05;24.70;51.60
58993;DHT22;44782;0.000;0.000;2023-06-14T07:57:21;24.70;51.60
58993;DHT22;44782;0.000;0.000;2023-06-14T07:59:37;24.70;51.60
58993;DHT22;44782;0.000;0.000;2023-06-14T08:01:52;24.70;51.60
58993;DHT22;44782;0.000;0.000;2023-06-14T08:04:08;24.70;51.60
58993;DHT22;44782;0.000;0.000;2023-06-14T08:06:24;24.70;51.60
58993;DHT22;44782;0.000;0.000;2023-06-14T08:08:39;24.70;51.60
58993;DHT22;44782;0.000;0.000;2023-06-14T08:10:55;24.80;51.60
58993;DHT22;44782;0.000;0.000;2023-06-14T08:13:11;24.70;51.50
58993;DHT22;44782;0.000;0.000;2023-06-14T08:15:26;24.70;51.50
58993;DHT22;44782;0.000;0.000;2023-06-14T08:17:43;24.70;51.60
58993;DHT22;44782;0.000;0.000;2023-06-14T08:19:59;24.70;51.50
58993;DHT22;44782;0.000;0.000;2023-06-14T08:22:15;24.70;51.50
58993;DHT22;44782;0.000;0.000;2023-06-14T08:24:30;24.70;51.50
58993;DHT22;44782;0.000;0.000;2023-06-14T08:26:46;24.70;51.40
58993;DHT22;44782;0.000;0.000;2023-06-14T08:29:01;24.70;51.40
58993;DHT22;44782;0.000;0.000;2023-06-14T08:31:17;24.70;51.30
58993;DHT22;44782;0.000;0.000;2023-06-14T08:33:33;24.70;51.40
58993;DHT22;44782;0.000;0.000;2023-06-14T08:35:49;24.70;51.30
58993;DHT22;44782;0.000;0.000;2023-06-14T08:38:05;24.70;51.30
58993;DHT22;44782;0.000;0.000;2023-06-14T08:40:22;24.70;51.30
58993;DHT22;44782;0.000;0.000;2023-06-14T08:42:38;24.70;51.20
58993;DHT22;44782;0.000;0.000;2023-06-14T08:44:54;24.70;51.20
58993;DHT22;44782;0.000;0.000;2023-06-14T08:47:10;24.70;51.20
58993;DHT22;44782;0.000;0.000;2023-06-14T08:49:27;24.80;51.30
58993;DHT22;44782;0.000;0.000;2023-06-14T08:51:43;24.70;51.20
58993;DHT22;44782;0.000;0.000;2023-06-14T08:53:59;24.80;51.30
58993;DHT22;44782;0.000;0.000;2023-06-14T08:56:17;24.70;51.20
58993;DHT22;44782;0.000;0.000;2023-06-14T08:58:34;24.70;51.00
58993;DHT22;44782;0.000;0.000;2023-06-14T09:00:50;24.70;51.00
58993;DHT22;44782;0.000;0.000;2023-06-14T09:03:07;24.70;51.10
58993;DHT22;44782;0.000;0.000;2023-06-14T09:05:26;24.70;51.00
58993;DHT22;44782;0.000;0.000;2023-06-14T09:07:43;24.70;51.00
58993;DHT22;44782;0.000;0.000;2023-06-14T09:10:12;24.70;51.00
58993;DHT22;44782;0.000;0.000;2023-06-14T09:12:28;24.80;50.70
58993;DHT22;44782;0.000;0.000;2023-06-14T09:14:44;24.70;50.90
58993;DHT22;44782;0.000;0.000;2023-06-14T09:17:01;24.70;50.90
58993;DHT22;44782;0.000;0.000;2023-06-14T09:19:34;24.70;50.80
58993;DHT22;44782;0.000;0.000;2023-06-14T09:21:52;24.80;50.30
58993;DHT22;44782;0.000;0.000;2023-06-14T09:24:13;24.70;50.70
58993;DHT22;44782;0.000;0.000;2023-06-14T09:26:29;24.80;50.60
58993;DHT22;44782;0.000;0.000;2023-06-14T09:28:47;24.70;50.70
58993;DHT22;44782;0.000;0.000;2023-06-14T09:31:03;24.80;50.70
58993;DHT22;44782;0.000;0.000;2023-06-14T09:33:18;24.70;50.60
58993;DHT22;44782;0.000;0.000;2023-06-14T09:35:34;24.80;51.40
58993;DHT22;44782;0.000;0.000;2023-06-14T09:37:50;24.70;50.50
58993;DHT22;44782;0.000;0.000;2023-06-14T09:40:06;24.80;50.50
58993;DHT22;44782;0.000;0.000;2023-06-14T09:42:22;24.80;50.50
58993;DHT22;44782;0.000;0.000;2023-06-14T09:44:41;24.80;51.20
58993;DHT22;44782;0.000;0.000;2023-06-14T09:46:57;24.80;50.50
58993;DHT22;44782;0.000;0.000;2023-06-14T09:49:12;24.80;50.50
58993;DHT22;44782;0.000;0.000;2023-06-14T09:53:51;24.80;50.20
58993;DHT22;44782;0.000;0.000;2023-06-14T09:56:07;24.80;50.50
58993;DHT22;44782;0.000;0.000;2023-06-14T09:58:25;24.80;50.50
58993;DHT22;44782;0.000;0.000;2023-06-14T10:00:41;24.80;50.40
58993;DHT22;44782;0.000;0.000;2023-06-14T10:03:03;24.80;50.50
58993;DHT22;44782;0.000;0.000;2023-06-14T10:05:19;24.80;50.40
58993;DHT22;44782;0.000;0.000;2023-06-14T10:07:53;24.80;50.40
58993;DHT22;44782;0.000;0.000;2023-06-14T10:10:10;24.80;50.10
58993;DHT22;44782;0.000;0.000;2023-06-14T10:12:26;24.80;50.40
58993;DHT22;44782;0.000;0.000;2023-06-14T10:14:42;24.80;50.30
58993;DHT22;44782;0.000;0.000;2023-06-14T10:17:04;24.80;50.30
58993;DHT22;44782;0.000;0.000;2023-06-14T10:19:33;24.80;50.10
58993;DHT22;44782;0.000;0.000;2023-06-14T10:22:04;24.80;49.90
58993;DHT22;44782;0.000;0.000;2023-06-14T10:24:30;24.80;49.90
58993;DHT22;44782;0.000;0.000;2023-06-14T10:26:57;24.80;50.00
58993;DHT22;44782;0.000;0.000;2023-06-14T10:29:13;24.80;49.80
58993;DHT22;44782;0.000;0.000;2023-06-14T10:31:49;24.80;50.20
58993;DHT22;44782;0.000;0.000;2023-06-14T10:34:04;24.90;49.60
58993;DHT22;44782;0.000;0.000;2023-06-14T10:36:29;24.80;50.20
58993;DHT22;44782;0.000;0.000;2023-06-14T10:39:14;24.80;49.60
58993;DHT22;44782;0.000;0.000;2023-06-14T10:41:35;24.80;49.10
58993;DHT22;44782;0.000;0.000;2023-06-14T10:43:51;24.80;50.00
58993;DHT22;44782;0.000;0.000;2023-06-14T10:46:17;24.90;50.20
58993;DHT22;44782;0.000;0.000;2023-06-14T10:48:34;24.80;49.60
58993;DHT22;44782;0.000;0.000;2023-06-14T10:51:00;24.80;50.10
58993;DHT22;44782;0.000;0.000;2023-06-14T10:53:23;24.90;49.90
58993;DHT22;44782;0.000;0.000;2023-06-14T10:55:42;24.80;49.90
58993;DHT22;44782;0.000;0.000;2023-06-14T10:57:57;24.80;50.00
58993;DHT22;44782;0.000;0.000;2023-06-14T11:00:14;24.90;50.00
58993;DHT22;44782;0.000;0.000;2023-06-14T11:08:15;24.80;49.50
58993;DHT22;44782;0.000;0.000;2023-06-14T11:10:37;24.80;49.30
58993;DHT22;44782;0.000;0.000;2023-06-14T11:12:54;24.90;49.70
58993;DHT22;44782;0.000;0.000;2023-06-14T11:15:11;24.90;49.80
58993;DHT22;44782;0.000;0.000;2023-06-14T11:17:27;24.90;49.80
58993;DHT22;44782;0.000;0.000;2023-06-14T11:19:44;24.90;49.80
58993;DHT22;44782;0.000;0.000;2023-06-14T11:22:00;24.90;49.70
58993;DHT22;44782;0.000;0.000;2023-06-14T11:24:16;24.90;49.70
58993;DHT22;44782;0.000;0.000;2023-06-14T11:26:32;24.90;49.60
58993;DHT22;44782;0.000;0.000;2023-06-14T11:28:55;24.90;49.70
58993;DHT22;44782;0.000;0.000;2023-06-14T11:31:11;24.90;49.50
58993;DHT22;44782;0.000;0.000;2023-06-14T11:33:26;24.90;49.70
58993;DHT22;44782;0.000;0.000;2023-06-14T11:35:42;24.90;49.60
58993;DHT22;44782;0.000;0.000;2023-06-14T11:37:57;24.90;49.60
58993;DHT22;44782;0.000;0.000;2023-06-14T11:40:13;24.90;49.60
58993;DHT22;44782;0.000;0.000;2023-06-14T11:42:29;24.90;49.60
58993;DHT22;44782;0.000;0.000;2023-06-14T11:44:49;24.90;49.50
58993;DHT22;44782;0.000;0.000;2023-06-14T11:47:04;24.90;49.40
58993;DHT22;44782;0.000;0.000;2023-06-14T11:49:20;24.90;49.50
58993;DHT22;44782;0.000;0.000;2023-06-14T11:51:36;24.90;49.50
58993;DHT22;44782;0.000;0.000;2023-06-14T11:53:52;24.90;49.40
58993;DHT22;44782;0.000;0.000;2023-06-14T11:56:08;25.00;49.40
58993;DHT22;44782;0.000;0.000;2023-06-14T11:58:25;25.00;49.40
58993;DHT22;44782;0.000;0.000;2023-06-14T12:00:42;24.90;49.40
58993;DHT22;44782;0.000;0.000;2023-06-14T12:02:58;24.90;49.30
58993;DHT22;44782;0.000;0.000;2023-06-14T12:05:14;24.90;49.30
58993;DHT22;44782;0.000;0.000;2023-06-14T12:07:30;24.90;49.30
58993;DHT22;44782;0.000;0.000;2023-06-14T12:12:14;25.00;49.00
58993;DHT22;44782;0.000;0.000;2023-06-14T12:14:31;24.90;50.00
58993;DHT22;44782;0.000;0.000;2023-06-14T12:16:47;24.90;49.30
58993;DHT22;44782;0.000;0.000;2023-06-14T12:19:16;25.00;49.50
58993;DHT22;44782;0.000;0.000;2023-06-14T12:21:32;25.00;48.70
58993;DHT22;44782;0.000;0.000;2023-06-14T12:23:49;24.90;49.20
58993;DHT22;44782;0.000;0.000;2023-06-14T12:26:05;25.00;49.30
58993;DHT22;44782;0.000;0.000;2023-06-14T12:28:21;25.00;49.20
58993;DHT22;44782;0.000;0.000;2023-06-14T12:30:37;25.00;49.10
58993;DHT22;44782;0.000;0.000;2023-06-14T12:32:52;25.00;49.20
58993;DHT22;44782;0.000;0.000;2023-06-14T12:35:08;25.00;49.10
58993;DHT22;44782;0.000;0.000;2023-06-14T12:37:24;25.00;49.10
58993;DHT22;44782;0.000;0.000;2023-06-14T12:39:40;25.00;49.10
58993;DHT22;44782;0.000;0.000;2023-06-14T12:41:55;25.00;49.10
58993;DHT22;44782;0.000;0.000;2023-06-14T12:44:12;25.00;49.00
58993;DHT22;44782;0.000;0.000;2023-06-14T12:46:27;25.00;49.00
58993;DHT22;44782;0.000;0.000;2023-06-14T12:48:43;25.00;49.00
58993;DHT22;44782;0.000;0.000;2023-06-14T12:50:59;25.00;49.00
58993;DHT22;44782;0.000;0.000;2023-06-14T12:53:14;25.00;49.00
58993;DHT22;44782;0.000;0.000;2023-06-14T12:55:30;25.00;49.00
58993;DHT22;44782;0.000;0.000;2023-06-14T12:57:46;25.00;49.00
58993;DHT22;44782;0.000;0.000;2023-06-14T13:00:01;25.00;49.00
58993;DHT22;44782;0.000;0.000;2023-06-14T13:02:19;25.00;48.90
58993;DHT22;44782;0.000;0.000;2023-06-14T13:04:37;25.00;48.90
58993;DHT22;44782;0.000;0.000;2023-06-14T13:06:53;25.00;49.00
58993;DHT22;44782;0.000;0.000;2023-06-14T13:09:09;25.00;49.00
58993;DHT22;44782;0.000;0.000;2023-06-14T13:11:24;25.00;48.90
58993;DHT22;44782;0.000;0.000;2023-06-14T13:13:40;25.00;48.90
58993;DHT22;44782;0.000;0.000;2023-06-14T13:15:56;25.10;49.00
58993;DHT22;44782;0.000;0.000;2023-06-14T13:18:12;25.00;49.00
58993;DHT22;44782;0.000;0.000;2023-06-14T13:20:31;25.10;48.90
58993;DHT22;44782;0.000;0.000;2023-06-14T13:22:47;25.10;48.90
58993;DHT22;44782;0.000;0.000;2023-06-14T13:25:03;25.10;48.90
58993;DHT22;44782;0.000;0.000;2023-06-14T13:27:19;25.10;48.90
58993;DHT22;44782;0.000;0.000;2023-06-14T13:29:35;25.10;48.80
58993;DHT22;44782;0.000;0.000;2023-06-14T13:31:51;25.10;48.90
58993;DHT22;44782;0.000;0.000;2023-06-14T13:34:06;25.10;48.80
58993;DHT22;44782;0.000;0.000;2023-06-14T13:36:22;25.10;48.80
58993;DHT22;44782;0.000;0.000;2023-06-14T13:38:38;25.10;48.70
58993;DHT22;44782;0.000;0.000;2023-06-14T13:40:53;25.10;49.40
58993;DHT22;44782;0.000;0.000;2023-06-14T13:43:10;25.10;48.80
58993;DHT22;44782;0.000;0.000;2023-06-14T13:45:26;25.10;48.70
58993;DHT22;44782;0.000;0.000;2023-06-14T13:47:42;25.10;49.40
58993;DHT22;44782;0.000;0.000;2023-06-14T13:49:58;25.10;48.70
58993;DHT22;44782;0.000;0.000;2023-06-14T13:52:13;25.10;48.60
58993;DHT22;44782;0.000;0.000;2023-06-14T13:54:29;25.10;48.70
58993;DHT22;44782;0.000;0.000;2023-06-14T13:56:45;25.10;48.70
58993;DHT22;44782;0.000;0.000;2023-06-14T13:59:01;25.10;48.60
58993;DHT22;44782;0.000;0.000;2023-06-14T14:01:17;25.10;48.60
58993;DHT22;44782;0.000;0.000;2023-06-14T14:03:35;25.10;48.50
58993;DHT22;44782;0.000;0.000;2023-06-14T14:05:51;25.10;48.50
58993;DHT22;44782;0.000;0.000;2023-06-14T14:08:07;25.10;48.50
58993;DHT22;44782;0.000;0.000;2023-06-14T14:10:24;25.10;48.50
58993;DHT22;44782;0.000;0.000;2023-06-14T14:12:40;25.20;48.50
58993;DHT22;44782;0.000;0.000;2023-06-14T14:14:56;25.20;48.50
58993;DHT22;44782;0.000;0.000;2023-06-14T14:17:11;25.20;48.50
58993;DHT22;44782;0.000;0.000;2023-06-14T14:19:27;25.20;48.40
58993;DHT22;44782;0.000;0.000;2023-06-14T14:21:43;25.20;48.40
58993;DHT22;44782;0.000;0.000;2023-06-14T14:23:58;25.20;48.40
58993;DHT22;44782;0.000;0.000;2023-06-14T14:26:14;25.20;48.30
58993;DHT22;44782;0.000;0.000;2023-06-14T14:28:31;25.20;48.30
58993;DHT22;44782;0.000;0.000;2023-06-14T14:30:48;25.20;48.30
58993;DHT22;44782;0.000;0.000;2023-06-14T14:33:04;25.20;48.20
58993;DHT22;44782;0.000;0.000;2023-06-14T14:35:19;25.20;48.20
58993;DHT22;44782;0.000;0.000;2023-06-14T14:37:35;25.30;48.20
58993;DHT22;44782;0.000;0.000;2023-06-14T14:39:50;25.30;48.10
58993;DHT22;44782;0.000;0.000;2023-06-14T14:42:06;25.30;48.00
58993;DHT22;44782;0.000;0.000;2023-06-14T14:44:23;25.30;48.00
58993;DHT22;44782;0.000;0.000;2023-06-14T14:46:38;25.30;48.00
58993;DHT22;44782;0.000;0.000;2023-06-14T14:48:54;25.30;48.00
58993;DHT22;44782;0.000;0.000;2023-06-14T14:51:10;25.30;48.00
58993;DHT22;44782;0.000;0.000;2023-06-14T14:53:25;25.30;48.00
58993;DHT22;44782;0.000;0.000;2023-06-14T14:55:41;25.30;47.90